sensor_id;sensor_type;location;lat;lon;timestamp;P1;durP1;ratioP1;P2;durP2;ratioP2
8171;SDS011;4127;47.908;10.850;2023-04-29T05:56:50;3.00;;;2.80;;
8171;SDS011;4127;47.908;10.850;2023-04-29T18:47:21;5.50;;;4.97;;
8171;SDS011;4127;47.908;10.850;2023-04-29T18:49:48;5.00;;;4.60;;
8171;SDS011;4127;47.908;10.850;2023-04-29T18:52:15;6.83;;;5.10;;
8171;SDS011;4127;47.908;10.850;2023-04-29T18:54:42;5.40;;;4.90;;
8171;SDS011;4127;47.908;10.850;2023-04-29T18:57:08;5.00;;;4.60;;
8171;SDS011;4127;47.908;10.850;2023-04-29T18:59:35;5.63;;;4.97;;
8171;SDS011;4127;47.908;10.850;2023-04-29T19:02:03;5.27;;;4.87;;
8171;SDS011;4127;47.908;10.850;2023-04-29T19:04:32;5.57;;;5.07;;
8171;SDS011;4127;47.908;10.850;2023-04-29T19:06:59;6.13;;;5.40;;
8171;SDS011;4127;47.908;10.850;2023-04-29T19:09:27;6.57;;;5.90;;
8171;SDS011;4127;47.908;10.850;2023-04-29T19:11:57;6.50;;;5.90;;
8171;SDS011;4127;47.908;10.850;2023-04-29T19:14:25;4.83;;;4.43;;
8171;SDS011;4127;47.908;10.850;2023-04-29T19:16:52;6.97;;;6.00;;
8171;SDS011;4127;47.908;10.850;2023-04-29T19:19:20;5.47;;;4.97;;
8171;SDS011;4127;47.908;10.850;2023-04-29T19:21:46;5.83;;;5.23;;
8171;SDS011;4127;47.908;10.850;2023-04-29T19:24:13;6.83;;;6.23;;
8171;SDS011;4127;47.908;10.850;2023-04-29T19:26:40;5.77;;;5.23;;
8171;SDS011;4127;47.908;10.850;2023-04-29T19:29:07;6.00;;;5.50;;
8171;SDS011;4127;47.908;10.850;2023-04-29T19:31:34;6.60;;;6.00;;
8171;SDS011;4127;47.908;10.850;2023-04-29T19:34:01;7.03;;;6.43;;
8171;SDS011;4127;47.908;10.850;2023-04-29T19:36:28;6.40;;;5.90;;
8171;SDS011;4127;47.908;10.850;2023-04-29T19:38:55;7.37;;;6.67;;
8171;SDS011;4127;47.908;10.850;2023-04-29T19:41:22;7.00;;;6.40;;
8171;SDS011;4127;47.908;10.850;2023-04-29T19:43:49;9.73;;;7.63;;
8171;SDS011;4127;47.908;10.850;2023-04-29T19:46:16;7.73;;;7.00;;
8171;SDS011;4127;47.908;10.850;2023-04-29T19:48:43;7.87;;;7.17;;
8171;SDS011;4127;47.908;10.850;2023-04-29T19:51:09;7.47;;;6.77;;
8171;SDS011;4127;47.908;10.850;2023-04-29T19:53:36;8.27;;;7.37;;
8171;SDS011;4127;47.908;10.850;2023-04-29T19:56:03;8.10;;;7.30;;
8171;SDS011;4127;47.908;10.850;2023-04-29T19:58:30;10.20;;;8.30;;
8171;SDS011;4127;47.908;10.850;2023-04-29T20:00:58;11.10;;;8.47;;
8171;SDS011;4127;47.908;10.850;2023-04-29T20:03:24;8.00;;;7.30;;
8171;SDS011;4127;47.908;10.850;2023-04-29T20:05:52;7.60;;;6.90;;
8171;SDS011;4127;47.908;10.850;2023-04-29T20:08:19;9.13;;;7.43;;
8171;SDS011;4127;47.908;10.850;2023-04-29T20:10:46;8.00;;;7.20;;
8171;SDS011;4127;47.908;10.850;2023-04-29T20:13:13;8.73;;;7.37;;
8171;SDS011;4127;47.908;10.850;2023-04-29T20:15:40;8.90;;;8.00;;
8171;SDS011;4127;47.908;10.850;2023-04-29T20:18:07;8.33;;;7.53;;
8171;SDS011;4127;47.908;10.850;2023-04-29T20:20:34;7.80;;;7.10;;
8171;SDS011;4127;47.908;10.850;2023-04-29T20:23:01;8.50;;;7.73;;
8171;SDS011;4127;47.908;10.850;2023-04-29T20:25:28;8.37;;;7.47;;
8171;SDS011;4127;47.908;10.850;2023-04-29T20:27:55;8.53;;;7.73;;
8171;SDS011;4127;47.908;10.850;2023-04-29T20:30:24;9.27;;;8.37;;
8171;SDS011;4127;47.908;10.850;2023-04-29T20:32:52;8.47;;;7.67;;
8171;SDS011;4127;47.908;10.850;2023-04-29T20:35:19;7.83;;;7.13;;
8171;SDS011;4127;47.908;10.850;2023-04-29T20:37:46;8.03;;;6.73;;
8171;SDS011;4127;47.908;10.850;2023-04-29T20:40:12;8.70;;;7.90;;
8171;SDS011;4127;47.908;10.850;2023-04-29T20:42:39;8.53;;;7.70;;
8171;SDS011;4127;47.908;10.850;2023-04-29T20:45:06;8.00;;;7.20;;
8171;SDS011;4127;47.908;10.850;2023-04-29T20:47:34;8.50;;;7.70;;
8171;SDS011;4127;47.908;10.850;2023-04-29T20:50:00;7.63;;;6.93;;
8171;SDS011;4127;47.908;10.850;2023-04-29T20:52:29;7.47;;;6.87;;
8171;SDS011;4127;47.908;10.850;2023-04-29T20:54:56;7.97;;;7.27;;
8171;SDS011;4127;47.908;10.850;2023-04-29T20:57:23;8.17;;;7.37;;
8171;SDS011;4127;47.908;10.850;2023-04-29T20:59:51;8.03;;;7.23;;
8171;SDS011;4127;47.908;10.850;2023-04-29T21:02:19;7.83;;;7.13;;
8171;SDS011;4127;47.908;10.850;2023-04-29T21:04:46;8.07;;;7.27;;
8171;SDS011;4127;47.908;10.850;2023-04-29T21:07:13;9.23;;;7.83;;
8171;SDS011;4127;47.908;10.850;2023-04-29T21:09:40;9.97;;;8.30;;
8171;SDS011;4127;47.908;10.850;2023-04-29T21:12:07;11.23;;;9.83;;
8171;SDS011;4127;47.908;10.850;2023-04-29T21:14:34;11.53;;;10.33;;
8171;SDS011;4127;47.908;10.850;2023-04-29T21:17:01;7.40;;;6.70;;
8171;SDS011;4127;47.908;10.850;2023-04-29T21:19:28;6.40;;;5.80;;
8171;SDS011;4127;47.908;10.850;2023-04-29T21:21:55;7.10;;;6.37;;
8171;SDS011;4127;47.908;10.850;2023-04-29T21:24:22;7.00;;;6.30;;
8171;SDS011;4127;47.908;10.850;2023-04-29T21:26:49;6.67;;;6.07;;
8171;SDS011;4127;47.908;10.850;2023-04-29T21:29:15;7.63;;;6.93;;
8171;SDS011;4127;47.908;10.850;2023-04-29T21:31:42;7.17;;;6.57;;
8171;SDS011;4127;47.908;10.850;2023-04-29T21:34:09;6.83;;;6.13;;
8171;SDS011;4127;47.908;10.850;2023-04-29T21:36:36;6.80;;;6.20;;
8171;SDS011;4127;47.908;10.850;2023-04-29T21:39:02;6.90;;;6.20;;
8171;SDS011;4127;47.908;10.850;2023-04-29T21:41:32;6.90;;;6.30;;
8171;SDS011;4127;47.908;10.850;2023-04-29T21:44:04;7.20;;;6.57;;
8171;SDS011;4127;47.908;10.850;2023-04-29T21:46:32;6.90;;;6.30;;
8171;SDS011;4127;47.908;10.850;2023-04-29T21:49:00;7.07;;;6.47;;
8171;SDS011;4127;47.908;10.850;2023-04-29T21:51:28;6.17;;;5.67;;
8171;SDS011;4127;47.908;10.850;2023-04-29T21:53:54;7.40;;;6.80;;
8171;SDS011;4127;47.908;10.850;2023-04-29T21:56:21;6.97;;;6.37;;
8171;SDS011;4127;47.908;10.850;2023-04-29T21:58:49;7.07;;;6.37;;
8171;SDS011;4127;47.908;10.850;2023-04-29T22:01:16;7.40;;;6.70;;
8171;SDS011;4127;47.908;10.850;2023-04-29T22:04:05;7.43;;;6.70;;
8171;SDS011;4127;47.908;10.850;2023-04-29T22:06:32;7.80;;;6.37;;
8171;SDS011;4127;47.908;10.850;2023-04-29T22:08:59;6.93;;;6.33;;
8171;SDS011;4127;47.908;10.850;2023-04-29T22:11:26;8.10;;;7.27;;
8171;SDS011;4127;47.908;10.850;2023-04-29T22:13:53;7.97;;;6.40;;
8171;SDS011;4127;47.908;10.850;2023-04-29T22:16:20;7.47;;;6.77;;
8171;SDS011;4127;47.908;10.850;2023-04-29T22:18:48;8.47;;;7.57;;
8171;SDS011;4127;47.908;10.850;2023-04-29T22:21:15;9.70;;;8.70;;
8171;SDS011;4127;47.908;10.850;2023-04-29T22:23:42;9.43;;;8.53;;
8171;SDS011;4127;47.908;10.850;2023-04-29T22:26:09;8.90;;;8.00;;
8171;SDS011;4127;47.908;10.850;2023-04-29T22:28:36;9.93;;;9.03;;
8171;SDS011;4127;47.908;10.850;2023-04-29T22:31:03;8.73;;;7.90;;
8171;SDS011;4127;47.908;10.850;2023-04-29T22:33:29;9.23;;;8.33;;
8171;SDS011;4127;47.908;10.850;2023-04-29T22:35:56;9.57;;;8.60;;
8171;SDS011;4127;47.908;10.850;2023-04-29T22:38:23;9.60;;;8.70;;
8171;SDS011;4127;47.908;10.850;2023-04-29T22:40:52;9.63;;;8.73;;
8171;SDS011;4127;47.908;10.850;2023-04-29T22:43:19;8.63;;;7.50;;
8171;SDS011;4127;47.908;10.850;2023-04-29T22:45:52;7.47;;;6.67;;
8171;SDS011;4127;47.908;10.850;2023-04-29T22:48:20;7.17;;;6.47;;
8171;SDS011;4127;47.908;10.850;2023-04-29T22:50:52;6.77;;;5.80;;
8171;SDS011;4127;47.908;10.850;2023-04-29T22:53:24;6.60;;;6.00;;
8171;SDS011;4127;47.908;10.850;2023-04-29T22:55:52;6.73;;;6.00;;
8171;SDS011;4127;47.908;10.850;2023-04-29T22:58:21;5.80;;;5.30;;
8171;SDS011;4127;47.908;10.850;2023-04-29T23:00:51;8.13;;;5.90;;
8171;SDS011;4127;47.908;10.850;2023-04-29T23:03:19;5.70;;;5.20;;
8171;SDS011;4127;47.908;10.850;2023-04-29T23:05:46;6.83;;;6.23;;
8171;SDS011;4127;47.908;10.850;2023-04-29T23:08:13;6.33;;;5.73;;
8171;SDS011;4127;47.908;10.850;2023-04-29T23:10:40;5.93;;;5.43;;
8171;SDS011;4127;47.908;10.850;2023-04-29T23:13:06;5.73;;;5.23;;
8171;SDS011;4127;47.908;10.850;2023-04-29T23:15:33;7.07;;;5.47;;
8171;SDS011;4127;47.908;10.850;2023-04-29T23:18:00;6.33;;;5.73;;
8171;SDS011;4127;47.908;10.850;2023-04-29T23:20:27;5.90;;;5.30;;
8171;SDS011;4127;47.908;10.850;2023-04-29T23:22:54;6.23;;;5.60;;
8171;SDS011;4127;47.908;10.850;2023-04-29T23:25:21;6.57;;;5.37;;
8171;SDS011;4127;47.908;10.850;2023-04-29T23:27:48;6.63;;;6.03;;
8171;SDS011;4127;47.908;10.850;2023-04-29T23:30:14;6.37;;;5.77;;
8171;SDS011;4127;47.908;10.850;2023-04-29T23:32:41;6.50;;;5.90;;
8171;SDS011;4127;47.908;10.850;2023-04-29T23:35:08;6.60;;;5.97;;
8171;SDS011;4127;47.908;10.850;2023-04-29T23:37:37;6.33;;;5.83;;
8171;SDS011;4127;47.908;10.850;2023-04-29T23:40:04;6.20;;;5.60;;
8171;SDS011;4127;47.908;10.850;2023-04-29T23:42:32;6.43;;;5.83;;
8171;SDS011;4127;47.908;10.850;2023-04-29T23:44:59;6.57;;;5.97;;
8171;SDS011;4127;47.908;10.850;2023-04-29T23:47:26;6.50;;;5.90;;
8171;SDS011;4127;47.908;10.850;2023-04-29T23:49:52;6.10;;;5.57;;
8171;SDS011;4127;47.908;10.850;2023-04-29T23:52:20;5.90;;;5.40;;
8171;SDS011;4127;47.908;10.850;2023-04-29T23:54:46;6.03;;;5.43;;
8171;SDS011;4127;47.908;10.850;2023-04-29T23:57:13;5.80;;;5.27;;
8171;SDS011;4127;47.908;10.850;2023-04-29T23:59:40;6.93;;;6.30;;
